createdAt,value
2018-07-23T00:00:04.760Z,99.90
2018-07-23T00:02:33.683Z,99.90
2018-07-23T00:05:02.594Z,99.90
2018-07-23T00:07:31.504Z,99.90
2018-07-23T00:10:00.415Z,99.90
2018-07-23T00:12:29.355Z,99.90
2018-07-23T00:14:58.304Z,99.90
2018-07-23T00:17:27.223Z,99.90
2018-07-23T00:19:56.211Z,99.90
2018-07-23T00:22:25.146Z,99.90
2018-07-23T00:24:54.071Z,99.90
2018-07-23T00:27:22.990Z,99.90
2018-07-23T00:29:53.178Z,99.90
2018-07-23T00:32:22.101Z,99.90
2018-07-23T00:34:51.009Z,99.90
2018-07-23T00:37:19.886Z,99.90
2018-07-23T00:39:48.773Z,99.90
2018-07-23T00:42:18.655Z,99.90
2018-07-23T00:44:47.613Z,99.90
2018-07-23T00:49:45.038Z,99.90
2018-07-23T00:52:13.974Z,99.90
2018-07-23T00:54:42.899Z,99.90
2018-07-23T00:57:11.835Z,99.90
2018-07-23T00:59:40.774Z,99.90
2018-07-23T01:02:09.766Z,99.90
2018-07-23T01:04:38.730Z,99.90
2018-07-23T01:07:07.645Z,99.90
2018-07-23T01:12:05.038Z,99.90
2018-07-23T01:14:33.934Z,99.90
2018-07-23T01:17:03.015Z,99.90
2018-07-23T01:19:31.952Z,99.90
2018-07-23T01:22:00.830Z,99.90
2018-07-23T01:24:29.758Z,99.90
2018-07-23T01:26:58.682Z,99.90
2018-07-23T01:29:27.592Z,99.90
2018-07-23T01:31:56.521Z,99.90
2018-07-23T01:34:25.518Z,99.90
2018-07-23T01:36:54.449Z,99.90
2018-07-23T01:39:23.394Z,99.90
2018-07-23T01:41:52.303Z,99.90
2018-07-23T01:44:21.377Z,99.90
2018-07-23T01:46:50.281Z,99.90
2018-07-23T01:49:19.175Z,99.90
2018-07-23T01:51:48.057Z,99.90
2018-07-23T01:54:17.262Z,99.90
2018-07-23T01:56:46.166Z,99.90
2018-07-23T01:59:15.089Z,99.90
2018-07-23T02:01:43.962Z,99.90
2018-07-23T02:04:12.873Z,99.90
2018-07-23T02:06:41.802Z,99.90
2018-07-23T02:09:12.506Z,99.90
2018-07-23T02:14:10.154Z,99.90
2018-07-23T02:16:39.042Z,99.90
2018-07-23T02:19:07.967Z,99.90
2018-07-23T02:21:37.290Z,99.90
2018-07-23T02:24:06.722Z,99.90
2018-07-23T02:26:35.622Z,99.90
2018-07-23T02:29:04.597Z,99.90
2018-07-23T02:31:33.603Z,99.90
2018-07-23T02:34:02.571Z,99.90
2018-07-23T02:36:31.454Z,99.90
2018-07-23T02:39:00.414Z,99.90
2018-07-23T02:41:29.349Z,99.90
2018-07-23T02:43:58.294Z,99.90
2018-07-23T02:48:55.782Z,99.90
2018-07-23T02:51:24.734Z,99.90
2018-07-23T02:53:53.661Z,99.90
2018-07-23T02:56:22.586Z,99.90
2018-07-23T02:58:51.562Z,99.90
2018-07-23T03:01:20.453Z,99.90
2018-07-23T03:03:49.391Z,99.90
2018-07-23T03:06:18.342Z,99.90
2018-07-23T03:08:47.267Z,99.90
2018-07-23T03:11:16.213Z,99.90
2018-07-23T03:13:45.155Z,99.90
2018-07-23T03:16:14.070Z,99.90
2018-07-23T03:18:43.154Z,99.90
2018-07-23T03:21:12.072Z,99.90
2018-07-23T03:23:41.022Z,99.90
2018-07-23T03:26:09.922Z,99.90
2018-07-23T03:28:38.917Z,99.90
2018-07-23T03:31:08.040Z,99.90
2018-07-23T03:33:36.914Z,99.90
2018-07-23T03:36:06.034Z,99.90
2018-07-23T03:38:34.933Z,99.90
2018-07-23T03:41:03.941Z,99.90
2018-07-23T03:43:32.881Z,99.90
2018-07-23T03:46:01.770Z,99.90
2018-07-23T03:48:30.690Z,99.90
2018-07-23T03:50:59.634Z,99.90
2018-07-23T03:53:28.546Z,99.90
2018-07-23T03:55:57.482Z,99.90
2018-07-23T03:58:26.533Z,99.90
2018-07-23T04:00:55.618Z,99.90
2018-07-23T04:03:24.598Z,99.90
2018-07-23T04:05:53.481Z,99.90
2018-07-23T04:08:22.457Z,99.90
2018-07-23T04:10:51.368Z,99.90
2018-07-23T04:13:20.346Z,99.90
2018-07-23T04:15:49.321Z,99.90
2018-07-23T04:18:18.202Z,99.90
2018-07-23T04:20:47.215Z,99.90
2018-07-23T04:23:16.118Z,99.90
2018-07-23T04:25:45.035Z,99.90
2018-07-23T04:28:14.502Z,99.90
2018-07-23T04:33:11.991Z,99.90
2018-07-23T04:35:40.890Z,99.90
2018-07-23T04:38:09.798Z,99.90
2018-07-23T04:40:39.195Z,99.90
2018-07-23T04:43:08.110Z,99.90
2018-07-23T04:45:38.127Z,99.90
2018-07-23T04:48:07.102Z,99.90
2018-07-23T04:50:36.028Z,99.90
2018-07-23T04:53:05.079Z,99.90
2018-07-23T04:55:34.050Z,99.90
2018-07-23T04:58:03.058Z,99.90
2018-07-23T05:00:31.958Z,99.90
2018-07-23T05:03:00.962Z,99.90
2018-07-23T05:05:29.904Z,99.90
2018-07-23T05:07:58.838Z,99.90
2018-07-23T05:10:27.779Z,99.90
2018-07-23T05:12:56.722Z,99.90
2018-07-23T05:15:25.750Z,99.90
2018-07-23T05:17:54.835Z,99.90
2018-07-23T05:20:23.752Z,99.90
2018-07-23T05:22:52.651Z,99.90
2018-07-23T05:25:21.553Z,99.90
2018-07-23T05:27:50.475Z,99.90
2018-07-23T05:30:19.505Z,99.90
2018-07-23T05:32:48.390Z,99.90
2018-07-23T05:35:17.345Z,99.90
2018-07-23T05:37:46.302Z,99.90
2018-07-23T05:40:15.270Z,99.90
2018-07-23T05:42:44.159Z,99.90
2018-07-23T05:45:13.290Z,99.90
2018-07-23T05:47:44.772Z,99.90
2018-07-23T05:50:13.725Z,99.90
2018-07-23T05:52:42.622Z,99.90
2018-07-23T05:55:11.552Z,99.90
2018-07-23T05:57:40.529Z,99.90
2018-07-23T06:00:09.382Z,99.90
2018-07-23T06:02:38.363Z,99.90
2018-07-23T06:05:07.287Z,99.90
2018-07-23T06:07:36.268Z,99.60
2018-07-23T06:10:05.556Z,99.60
2018-07-23T06:12:34.451Z,99.40
2018-07-23T06:15:03.366Z,98.60
2018-07-23T06:17:32.278Z,98.70
2018-07-23T06:20:01.207Z,99.30
2018-07-23T06:22:30.236Z,98.10
2018-07-23T06:24:59.212Z,97.80
2018-07-23T06:27:31.208Z,97.00
2018-07-23T06:30:00.117Z,96.10
2018-07-23T06:32:29.074Z,95.80
2018-07-23T06:34:58.062Z,96.40
2018-07-23T06:37:27.072Z,95.60
2018-07-23T06:39:56.017Z,95.30
2018-07-23T06:42:25.150Z,96.00
2018-07-23T06:44:54.058Z,94.00
2018-07-23T06:47:23.058Z,94.90
2018-07-23T06:49:51.938Z,94.90
2018-07-23T06:52:21.038Z,96.40
2018-07-23T06:54:49.941Z,95.30
2018-07-23T06:57:18.968Z,93.80
2018-07-23T06:59:47.818Z,93.60
2018-07-23T07:02:16.733Z,94.50
2018-07-23T07:04:45.642Z,94.70
2018-07-23T07:07:14.542Z,94.10
2018-07-23T07:09:43.726Z,95.10
2018-07-23T07:12:12.633Z,93.90
2018-07-23T07:14:42.529Z,92.40
2018-07-23T07:17:11.434Z,92.90
2018-07-23T07:19:40.347Z,93.10
2018-07-23T07:22:09.327Z,91.20
2018-07-23T07:24:38.280Z,89.10
2018-07-23T07:27:07.214Z,90.10
2018-07-23T07:29:42.614Z,89.30
2018-07-23T07:32:11.727Z,89.10
2018-07-23T07:34:40.628Z,85.20
2018-07-23T07:37:09.519Z,86.60
2018-07-23T07:39:38.410Z,84.00
2018-07-23T07:42:07.358Z,84.90
2018-07-23T07:44:36.243Z,84.10
2018-07-23T07:47:05.166Z,84.70
2018-07-23T07:49:34.438Z,84.30
2018-07-23T07:52:03.370Z,86.30
2018-07-23T07:54:32.257Z,77.00
2018-07-23T07:57:01.198Z,75.30
2018-07-23T07:59:30.107Z,74.50
2018-07-23T08:01:59.014Z,72.10
2018-07-23T08:04:27.901Z,74.20
2018-07-23T08:06:56.937Z,74.60
2018-07-23T08:09:25.918Z,74.50
2018-07-23T08:11:54.990Z,73.40
2018-07-23T08:14:23.895Z,70.10
2018-07-23T08:16:52.794Z,67.50
2018-07-23T08:19:21.682Z,66.40
2018-07-23T08:21:50.617Z,64.90
2018-07-23T08:24:19.534Z,66.50
2018-07-23T08:26:48.423Z,65.10
2018-07-23T08:29:17.362Z,66.90
2018-07-23T08:31:46.381Z,61.50
2018-07-23T08:34:15.190Z,60.10
2018-07-23T08:36:45.550Z,57.40
2018-07-23T08:39:14.649Z,59.40
2018-07-23T08:41:43.570Z,59.70
2018-07-23T08:44:12.525Z,62.60
2018-07-23T08:46:41.413Z,61.50
2018-07-23T08:49:10.330Z,61.90
2018-07-23T08:51:39.227Z,63.00
2018-07-23T08:54:08.099Z,65.20
2018-07-23T08:56:36.989Z,59.40
2018-07-23T08:59:05.965Z,60.40
2018-07-23T09:01:34.862Z,61.20
2018-07-23T09:04:03.775Z,61.00
2018-07-23T09:09:01.225Z,59.20
2018-07-23T09:11:30.162Z,59.10
2018-07-23T09:13:59.089Z,58.00
2018-07-23T09:16:28.086Z,59.00
2018-07-23T09:18:57.154Z,55.80
2018-07-23T09:21:26.146Z,51.90
2018-07-23T09:23:55.168Z,48.50
2018-07-23T09:26:24.003Z,50.00
2018-07-23T09:28:52.898Z,50.80
2018-07-23T09:31:21.806Z,48.10
2018-07-23T09:33:50.719Z,49.00
2018-07-23T09:36:19.610Z,48.50
2018-07-23T09:38:48.514Z,49.20
2018-07-23T09:41:17.381Z,47.30
2018-07-23T09:43:46.288Z,45.80
2018-07-23T09:46:15.175Z,47.00
2018-07-23T09:48:44.095Z,43.70
2018-07-23T09:51:12.958Z,43.60
2018-07-23T09:53:41.849Z,43.00
2018-07-23T09:56:10.742Z,44.40
2018-07-23T09:58:39.622Z,44.60
2018-07-23T10:01:11.456Z,43.20
2018-07-23T10:03:40.812Z,41.60
2018-07-23T10:06:09.655Z,41.40
2018-07-23T10:08:38.651Z,41.30
2018-07-23T10:11:07.570Z,40.60
2018-07-23T10:13:36.530Z,38.80
2018-07-23T10:16:05.426Z,37.70
2018-07-23T10:21:02.910Z,39.60
2018-07-23T10:23:31.823Z,38.60
2018-07-23T10:26:00.737Z,39.60
2018-07-23T10:28:29.654Z,38.70
2018-07-23T10:30:58.610Z,39.30
2018-07-23T10:33:27.535Z,37.80
2018-07-23T10:35:56.509Z,36.10
2018-07-23T10:38:25.505Z,37.60
2018-07-23T10:40:54.378Z,37.20
2018-07-23T10:43:23.270Z,35.00
2018-07-23T10:45:52.210Z,34.20
2018-07-23T10:48:21.137Z,37.00
2018-07-23T10:50:50.059Z,34.60
2018-07-23T10:53:18.950Z,33.70
2018-07-23T10:55:47.845Z,32.90
2018-07-23T10:58:16.762Z,32.10
2018-07-23T11:00:45.650Z,33.10
2018-07-23T11:03:14.590Z,35.00
2018-07-23T11:05:43.530Z,31.10
2018-07-23T11:08:12.538Z,29.30
2018-07-23T11:10:41.440Z,30.70
2018-07-23T11:13:10.329Z,33.50
2018-07-23T11:15:39.254Z,31.80
2018-07-23T11:18:08.159Z,29.60
2018-07-23T11:20:37.021Z,30.00
2018-07-23T11:23:06.062Z,32.60
2018-07-23T11:25:39.179Z,30.30
2018-07-23T11:28:03.898Z,29.50
2018-07-23T11:30:32.782Z,31.20
2018-07-23T11:33:01.963Z,31.50
2018-07-23T11:35:37.694Z,30.20
2018-07-23T11:38:06.673Z,30.40
2018-07-23T11:40:36.217Z,30.10
2018-07-23T11:43:06.450Z,28.90
2018-07-23T11:45:35.322Z,30.40
2018-07-23T11:48:04.335Z,26.90
2018-07-23T11:55:30.499Z,27.30
2018-07-23T11:57:59.425Z,26.40
2018-07-23T12:00:28.310Z,29.60
2018-07-23T12:05:25.753Z,29.90
2018-07-23T12:07:54.670Z,29.50
2018-07-23T12:10:23.638Z,28.00
2018-07-23T12:12:52.554Z,28.50
2018-07-23T12:15:21.410Z,28.70
2018-07-23T12:20:18.878Z,26.50
2018-07-23T12:22:47.841Z,30.20
2018-07-23T12:25:16.749Z,26.70
2018-07-23T12:27:45.626Z,27.20
2018-07-23T12:32:43.360Z,25.90
2018-07-23T12:35:12.248Z,26.80
2018-07-23T12:37:41.170Z,25.90
2018-07-23T12:40:13.043Z,26.20
2018-07-23T12:42:41.970Z,25.90
2018-07-23T12:45:10.866Z,26.20
2018-07-23T12:47:39.782Z,25.80
2018-07-23T12:50:08.682Z,26.00
2018-07-23T12:52:37.648Z,26.90
2018-07-23T12:55:06.534Z,25.60
2018-07-23T12:57:35.417Z,26.10
2018-07-23T13:00:04.801Z,26.50
2018-07-23T13:02:33.662Z,27.00
2018-07-23T13:05:02.582Z,26.20
2018-07-23T13:07:31.725Z,25.20
2018-07-23T13:10:00.704Z,24.40
2018-07-23T13:12:29.947Z,25.00
2018-07-23T13:14:59.323Z,24.40
2018-07-23T13:17:28.297Z,22.80
2018-07-23T13:19:57.269Z,22.60
2018-07-23T13:22:26.324Z,21.30
2018-07-23T13:24:55.369Z,21.50
2018-07-23T13:27:24.416Z,20.90
2018-07-23T13:29:53.503Z,22.10
2018-07-23T13:32:22.464Z,21.50
2018-07-23T13:34:51.314Z,22.40
2018-07-23T13:37:20.558Z,21.20
2018-07-23T13:39:49.450Z,22.40
2018-07-23T13:42:18.411Z,20.90
2018-07-23T13:44:47.520Z,21.90
2018-07-23T13:47:16.735Z,21.10
2018-07-23T13:49:46.136Z,21.70
2018-07-23T13:52:15.194Z,21.70
2018-07-23T13:54:45.399Z,21.40
2018-07-23T13:57:15.134Z,20.50
2018-07-23T13:59:44.158Z,22.60
2018-07-23T14:02:13.031Z,19.40
2018-07-23T14:04:41.986Z,20.70
2018-07-23T14:07:10.850Z,20.20
2018-07-23T14:09:39.754Z,22.60
2018-07-23T14:12:10.390Z,19.10
2018-07-23T14:14:42.162Z,19.80
2018-07-23T14:17:11.244Z,20.50
2018-07-23T14:19:40.519Z,21.70
2018-07-23T14:22:09.636Z,22.60
2018-07-23T14:24:39.495Z,19.60
2018-07-23T14:27:08.459Z,18.00
2018-07-23T14:29:37.459Z,19.70
2018-07-23T14:32:09.144Z,21.00
2018-07-23T14:34:38.214Z,23.00
2018-07-23T14:37:07.462Z,24.60
2018-07-23T14:39:36.460Z,24.80
2018-07-23T14:42:05.460Z,25.20
2018-07-23T14:44:34.430Z,25.80
2018-07-23T14:47:03.407Z,26.50
2018-07-23T14:49:32.476Z,25.40
2018-07-23T14:52:01.380Z,24.30
2018-07-23T14:54:30.312Z,26.80
2018-07-23T14:56:59.263Z,24.70
2018-07-23T14:59:28.160Z,22.60
2018-07-23T15:04:25.731Z,22.30
2018-07-23T15:06:54.629Z,23.70
2018-07-23T15:09:23.512Z,22.70
2018-07-23T15:11:52.524Z,23.60
2018-07-23T15:14:21.753Z,21.60
2018-07-23T15:16:50.647Z,23.30
2018-07-23T15:19:22.527Z,22.00
2018-07-23T15:21:51.433Z,19.40
2018-07-23T15:24:20.314Z,19.30
2018-07-23T15:26:49.197Z,20.90
2018-07-23T15:31:46.594Z,20.10
2018-07-23T15:34:15.521Z,19.70
2018-07-23T15:36:44.419Z,18.60
2018-07-23T15:39:13.293Z,19.00
2018-07-23T15:41:42.183Z,16.80
2018-07-23T15:44:11.307Z,15.90
2018-07-23T15:46:40.271Z,18.00
2018-07-23T15:49:09.186Z,19.10
2018-07-23T15:51:38.140Z,18.50
2018-07-23T15:54:07.121Z,17.50
2018-07-23T15:56:36.118Z,16.20
2018-07-23T15:59:05.006Z,16.40
2018-07-23T16:01:33.877Z,16.20
2018-07-23T16:04:02.778Z,18.10
2018-07-23T16:06:31.679Z,18.50
2018-07-23T16:09:00.616Z,19.10
2018-07-23T16:11:30.101Z,19.80
2018-07-23T16:13:59.046Z,19.50
2018-07-23T16:16:28.014Z,19.40
2018-07-23T16:18:57.065Z,20.60
2018-07-23T16:21:25.956Z,22.20
2018-07-23T16:23:54.926Z,23.60
2018-07-23T16:26:24.118Z,25.20
2018-07-23T16:28:53.388Z,23.10
2018-07-23T16:31:22.514Z,23.60
2018-07-23T16:33:51.625Z,23.50
2018-07-23T16:36:20.768Z,24.00
2018-07-23T16:38:50.488Z,24.00
2018-07-23T16:41:21.609Z,25.30
2018-07-23T16:43:50.630Z,25.10
2018-07-23T16:46:19.646Z,22.00
2018-07-23T16:48:48.575Z,19.80
2018-07-23T16:51:17.755Z,19.20
2018-07-23T16:53:46.671Z,19.90
2018-07-23T16:56:15.895Z,20.20
2018-07-23T16:58:45.298Z,19.50
2018-07-23T17:03:42.786Z,19.00
2018-07-23T17:06:12.095Z,20.00
2018-07-23T17:08:41.021Z,20.20
2018-07-23T17:11:10.130Z,21.20
2018-07-23T17:18:37.194Z,25.30
2018-07-23T17:21:07.666Z,25.60
2018-07-23T17:23:36.577Z,24.50
2018-07-23T17:26:05.567Z,24.30
2018-07-23T17:28:34.702Z,25.80
2018-07-23T17:31:03.661Z,24.10
2018-07-23T17:33:32.546Z,25.80
2018-07-23T17:36:01.465Z,26.40
2018-07-23T17:38:30.717Z,26.20
2018-07-23T17:40:59.714Z,25.30
2018-07-23T17:43:28.615Z,25.50
2018-07-23T17:45:57.721Z,24.60
2018-07-23T17:48:26.918Z,25.60
2018-07-23T17:50:55.973Z,25.10
2018-07-23T17:55:53.417Z,24.60
2018-07-23T17:58:22.294Z,25.70
2018-07-23T18:00:51.226Z,25.50
2018-07-23T18:03:20.522Z,24.80
2018-07-23T18:05:50.445Z,26.70
2018-07-23T18:08:19.351Z,28.30
2018-07-23T18:10:48.343Z,27.20
2018-07-23T18:13:17.337Z,27.40
2018-07-23T18:15:46.234Z,27.30
2018-07-23T18:18:15.513Z,26.40
2018-07-23T18:20:44.368Z,25.70
2018-07-23T18:23:14.216Z,28.60
2018-07-23T18:25:43.118Z,28.90
2018-07-23T18:28:12.014Z,27.00
2018-07-23T18:30:40.954Z,28.90
2018-07-23T18:33:09.866Z,29.70
2018-07-23T18:35:39.003Z,29.20
2018-07-23T18:38:07.952Z,31.30
2018-07-23T18:40:36.860Z,30.00
2018-07-23T18:43:06.008Z,29.80
2018-07-23T18:45:34.966Z,30.90
2018-07-23T18:49:09.146Z,30.10
2018-07-23T18:51:48.176Z,32.10
2018-07-23T18:54:17.581Z,31.90
2018-07-23T18:56:49.838Z,33.90
2018-07-23T18:59:18.882Z,35.30
2018-07-23T19:01:48.905Z,34.40
2018-07-23T19:04:17.897Z,35.20
2018-07-23T19:06:47.449Z,35.30
2018-07-23T19:09:19.407Z,35.80
2018-07-23T19:11:49.574Z,35.90
2018-07-23T19:14:18.945Z,36.10
2018-07-23T19:16:48.434Z,36.70
2018-07-23T19:19:17.327Z,37.70
2018-07-23T19:24:14.865Z,38.80
2018-07-23T19:26:43.790Z,40.40
2018-07-23T19:29:13.258Z,40.20
2018-07-23T19:31:42.238Z,40.50
2018-07-23T19:34:11.249Z,41.30
2018-07-23T19:39:10.342Z,42.50
2018-07-23T19:41:39.633Z,43.10
2018-07-23T19:44:08.865Z,43.80
2018-07-23T19:46:37.906Z,44.60
2018-07-23T19:49:06.819Z,44.50
2018-07-23T19:51:36.007Z,44.80
2018-07-23T19:54:06.175Z,46.90
2018-07-23T19:56:35.386Z,46.50
2018-07-23T19:59:04.414Z,47.00
2018-07-23T20:01:33.557Z,48.60
2018-07-23T20:04:02.549Z,49.00
2018-07-23T20:06:31.578Z,50.10
2018-07-23T20:09:01.381Z,50.10
2018-07-23T20:11:30.750Z,51.30
2018-07-23T20:13:59.722Z,51.30
2018-07-23T20:16:28.678Z,51.80
2018-07-23T20:18:57.778Z,52.60
2018-07-23T20:21:27.154Z,52.50
2018-07-23T20:26:26.755Z,54.40
2018-07-23T20:28:55.902Z,54.50
2018-07-23T20:31:25.505Z,54.60
2018-07-23T20:33:56.183Z,56.60
2018-07-23T20:36:25.346Z,56.70
2018-07-23T20:38:54.943Z,56.60
2018-07-23T20:41:23.991Z,56.60
2018-07-23T20:43:52.944Z,56.00
2018-07-23T20:46:22.007Z,59.40
2018-07-23T20:48:50.921Z,58.70
2018-07-23T20:51:19.920Z,58.60
2018-07-23T20:53:48.933Z,57.90
2018-07-23T20:56:17.846Z,57.30
2018-07-23T20:58:46.814Z,57.10
2018-07-23T21:01:15.737Z,58.20
2018-07-23T21:03:44.786Z,58.50
2018-07-23T21:06:13.655Z,59.00
2018-07-23T21:08:42.543Z,60.70
2018-07-23T21:11:11.462Z,60.10
2018-07-23T21:13:40.594Z,63.00
2018-07-23T21:16:09.542Z,64.00
2018-07-23T21:18:38.515Z,63.80
2018-07-23T21:21:07.429Z,62.80
2018-07-23T21:23:36.333Z,62.70
2018-07-23T21:26:05.682Z,64.20
2018-07-23T21:28:35.263Z,65.60
2018-07-23T21:31:04.359Z,65.70
2018-07-23T21:33:33.414Z,67.40
2018-07-23T21:36:02.411Z,69.00
2018-07-23T21:38:31.393Z,68.60
2018-07-23T21:41:00.373Z,68.60
2018-07-23T21:43:29.378Z,70.10
2018-07-23T21:45:58.384Z,69.90
2018-07-23T21:48:27.319Z,70.80
2018-07-23T21:50:56.294Z,70.50
2018-07-23T21:53:25.238Z,71.00
2018-07-23T21:55:54.186Z,71.30
2018-07-23T21:58:23.173Z,71.10
2018-07-23T22:00:52.558Z,72.60
2018-07-23T22:03:21.758Z,71.80
2018-07-23T22:08:19.198Z,74.10
2018-07-23T22:10:48.174Z,74.30
2018-07-23T22:13:17.160Z,76.40
2018-07-23T22:15:46.102Z,78.00
2018-07-23T22:18:15.038Z,80.30
2018-07-23T22:20:43.962Z,78.60
2018-07-23T22:23:13.129Z,79.00
2018-07-23T22:25:42.119Z,83.10
2018-07-23T22:30:39.737Z,83.10
2018-07-23T22:33:08.637Z,83.10
2018-07-23T22:35:37.714Z,83.10
2018-07-23T22:38:06.679Z,83.00
2018-07-23T22:40:35.613Z,83.00
2018-07-23T22:43:04.770Z,84.60
2018-07-23T22:45:33.711Z,86.50
2018-07-23T22:48:02.602Z,87.60
2018-07-23T22:50:31.799Z,87.10
2018-07-23T22:53:01.780Z,87.20
2018-07-23T22:55:30.713Z,88.20
2018-07-23T23:00:28.357Z,87.00
2018-07-23T23:02:57.334Z,87.00
2018-07-23T23:05:26.305Z,88.30
2018-07-23T23:07:55.215Z,88.20
2018-07-23T23:10:27.469Z,87.20
2018-07-23T23:12:56.459Z,89.30
2018-07-23T23:15:25.416Z,89.30
2018-07-23T23:17:54.394Z,87.60
2018-07-23T23:20:23.584Z,88.10
2018-07-23T23:22:52.578Z,90.00
2018-07-23T23:25:21.480Z,90.60
2018-07-23T23:27:50.378Z,90.20
2018-07-23T23:30:19.326Z,90.50
2018-07-23T23:32:48.841Z,90.50
2018-07-23T23:35:18.159Z,90.90
2018-07-23T23:37:47.221Z,90.50
2018-07-23T23:40:16.365Z,91.00
2018-07-23T23:42:45.278Z,90.90
2018-07-23T23:45:14.202Z,91.00
2018-07-23T23:47:43.266Z,90.90
2018-07-23T23:50:12.182Z,90.40
2018-07-23T23:52:41.089Z,90.10
2018-07-23T23:55:10.017Z,90.40
2018-07-23T23:57:38.893Z,91.00
